CEB565 RPLL-RPVM
Flight info
| Callsign | CEB565 |
|---|---|
| Flight time | 0h 54m |
| Altitude | 33000 |
| Route | IPATA2R IPATA W25 BATAY BATAY3P |
| Aircraft | A339/H-SADE1E2E3GHIJ3J5M1P2RWXY/LB2D1 |
Departure
| Time | 2026-04-30 13:08 |
|---|---|
| Airport | Ninoy Aquino International Airport (RPLL) |
Arrival
| Time | 2026-04-30 14:03 |
|---|---|
| Airport | Mactan Cebu International Airport (RPVM) |
| Time | Latitude | Longitude | Altitude | Speed | Heading |
|---|---|---|---|---|---|
| 2026-04-30 12:03 | 14.51986 | 121.01173 | 90 ft | 0 kts | 45° |
| 2026-04-30 12:26 | 14.51980 | 121.01167 | 90 ft | 2 kts | 45° |
| 2026-04-30 12:26 | 14.51969 | 121.01156 | 90 ft | 2 kts | 45° |
| 2026-04-30 12:27 | 14.51958 | 121.01145 | 90 ft | 2 kts | 45° |
| 2026-04-30 12:27 | 14.51948 | 121.01135 | 90 ft | 2 kts | 45° |
| 2026-04-30 12:27 | 14.51934 | 121.01118 | 90 ft | 2 kts | 70° |
| 2026-04-30 12:27 | 14.51932 | 121.01114 | 90 ft | 2 kts | 82° |
| 2026-04-30 12:28 | 14.51955 | 121.01073 | 90 ft | 2 kts | 135° |
| 2026-04-30 12:29 | 14.51980 | 121.01047 | 90 ft | 2 kts | 135° |
| 2026-04-30 12:29 | 14.51990 | 121.01037 | 90 ft | 2 kts | 135° |
| 2026-04-30 12:29 | 14.51996 | 121.01031 | 90 ft | 0 kts | 135° |
| 2026-04-30 12:36 | 14.51992 | 121.01035 | 90 ft | 2 kts | 135° |
| 2026-04-30 12:36 | 14.51971 | 121.01057 | 90 ft | 4 kts | 134° |
| 2026-04-30 12:36 | 14.51940 | 121.01090 | 90 ft | 7 kts | 135° |
| 2026-04-30 12:36 | 14.51895 | 121.01136 | 90 ft | 10 kts | 135° |
| 2026-04-30 12:37 | 14.51836 | 121.01196 | 90 ft | 13 kts | 135° |
| 2026-04-30 12:37 | 14.51778 | 121.01257 | 90 ft | 8 kts | 135° |
| 2026-04-30 12:37 | 14.51749 | 121.01286 | 90 ft | 0 kts | 135° |
| 2026-04-30 12:39 | 14.51747 | 121.01288 | 90 ft | 1 kts | 135° |
| 2026-04-30 12:39 | 14.51719 | 121.01317 | 90 ft | 9 kts | 135° |
| 2026-04-30 12:39 | 14.51662 | 121.01376 | 90 ft | 13 kts | 134° |
| 2026-04-30 12:40 | 14.51592 | 121.01448 | 90 ft | 13 kts | 135° |
| 2026-04-30 12:40 | 14.51526 | 121.01516 | 90 ft | 11 kts | 135° |
| 2026-04-30 12:40 | 14.51489 | 121.01554 | 90 ft | 7 kts | 135° |
| 2026-04-30 12:40 | 14.51446 | 121.01586 | 90 ft | 7 kts | 172° |
| 2026-04-30 12:41 | 14.51392 | 121.01571 | 90 ft | 8 kts | 181° |
| 2026-04-30 12:41 | 14.51342 | 121.01604 | 90 ft | 9 kts | 135° |
| 2026-04-30 12:41 | 14.51289 | 121.01658 | 90 ft | 11 kts | 135° |
| 2026-04-30 12:41 | 14.51229 | 121.01719 | 90 ft | 12 kts | 135° |
| 2026-04-30 12:42 | 14.51170 | 121.01779 | 90 ft | 9 kts | 135° |
| 2026-04-30 12:42 | 14.51137 | 121.01814 | 90 ft | 6 kts | 134° |
| 2026-04-30 12:42 | 14.51127 | 121.01823 | 90 ft | 0 kts | 134° |
| 2026-04-30 12:46 | 14.51118 | 121.01833 | 90 ft | 3 kts | 134° |
| 2026-04-30 12:46 | 14.51090 | 121.01862 | 90 ft | 6 kts | 134° |
| 2026-04-30 12:46 | 14.51068 | 121.01885 | 90 ft | 2 kts | 135° |
| 2026-04-30 12:47 | 14.51059 | 121.01894 | 90 ft | 3 kts | 135° |
| 2026-04-30 12:47 | 14.51030 | 121.01914 | 90 ft | 6 kts | 174° |
| 2026-04-30 12:47 | 14.50986 | 121.01884 | 90 ft | 9 kts | 233° |
| 2026-04-30 12:47 | 14.50947 | 121.01820 | 90 ft | 11 kts | 239° |
| 2026-04-30 12:48 | 14.50904 | 121.01743 | 90 ft | 12 kts | 241° |
| 2026-04-30 12:48 | 14.50876 | 121.01692 | 90 ft | 7 kts | 240° |
| 2026-04-30 12:48 | 14.50856 | 121.01656 | 90 ft | 5 kts | 240° |
| 2026-04-30 12:48 | 14.50836 | 121.01620 | 90 ft | 6 kts | 240° |
| 2026-04-30 12:49 | 14.50806 | 121.01566 | 90 ft | 10 kts | 240° |
| 2026-04-30 12:49 | 14.50764 | 121.01492 | 90 ft | 13 kts | 240° |
| 2026-04-30 12:49 | 14.50714 | 121.01401 | 90 ft | 16 kts | 240° |
| 2026-04-30 12:49 | 14.50656 | 121.01295 | 90 ft | 17 kts | 240° |
| 2026-04-30 12:50 | 14.50596 | 121.01189 | 90 ft | 17 kts | 239° |
| 2026-04-30 12:50 | 14.50535 | 121.01079 | 90 ft | 17 kts | 240° |
| 2026-04-30 12:50 | 14.50475 | 121.00970 | 90 ft | 17 kts | 240° |
| 2026-04-30 12:50 | 14.50413 | 121.00860 | 90 ft | 17 kts | 240° |
| 2026-04-30 12:51 | 14.50353 | 121.00748 | 90 ft | 17 kts | 240° |
| 2026-04-30 12:51 | 14.50311 | 121.00674 | 90 ft | 7 kts | 239° |
| 2026-04-30 12:51 | 14.50281 | 121.00620 | 90 ft | 10 kts | 240° |
| 2026-04-30 12:51 | 14.50242 | 121.00550 | 90 ft | 10 kts | 240° |
| 2026-04-30 12:52 | 14.50215 | 121.00500 | 90 ft | 6 kts | 239° |
| 2026-04-30 12:52 | 14.50188 | 121.00454 | 90 ft | 9 kts | 240° |
| 2026-04-30 12:52 | 14.50161 | 121.00404 | 90 ft | 4 kts | 240° |
| 2026-04-30 12:52 | 14.50147 | 121.00381 | 90 ft | 3 kts | 239° |
| 2026-04-30 12:53 | 14.50135 | 121.00359 | 90 ft | 3 kts | 240° |
| 2026-04-30 12:53 | 14.50115 | 121.00323 | 90 ft | 8 kts | 240° |
| 2026-04-30 12:53 | 14.50082 | 121.00263 | 90 ft | 10 kts | 240° |
| 2026-04-30 12:53 | 14.50041 | 121.00191 | 90 ft | 11 kts | 240° |
| 2026-04-30 12:54 | 14.50003 | 121.00121 | 90 ft | 10 kts | 240° |
| 2026-04-30 12:54 | 14.49975 | 121.00070 | 90 ft | 6 kts | 240° |
| 2026-04-30 12:54 | 14.49955 | 121.00034 | 90 ft | 6 kts | 240° |
| 2026-04-30 12:54 | 14.49950 | 121.00025 | 90 ft | 0 kts | 240° |
| 2026-04-30 12:58 | 14.49945 | 121.00016 | 90 ft | 3 kts | 240° |
| 2026-04-30 12:58 | 14.49928 | 120.99985 | 90 ft | 5 kts | 240° |
| 2026-04-30 12:59 | 14.49908 | 120.99962 | 90 ft | 3 kts | 208° |
| 2026-04-30 12:59 | 14.49892 | 120.99961 | 90 ft | 1 kts | 164° |
| 2026-04-30 12:59 | 14.49891 | 120.99962 | 90 ft | 0 kts | 160° |
| 2026-04-30 13:04 | 14.49890 | 120.99962 | 90 ft | 0 kts | 160° |
| 2026-04-30 13:05 | 14.49874 | 120.99969 | 90 ft | 4 kts | 157° |
| 2026-04-30 13:05 | 14.49832 | 120.99990 | 90 ft | 8 kts | 152° |
| 2026-04-30 13:05 | 14.49799 | 121.00031 | 90 ft | 6 kts | 86° |
| 2026-04-30 13:06 | 14.49808 | 121.00055 | 90 ft | 0 kts | 61° |
| 2026-04-30 13:07 | 14.49810 | 121.00060 | 90 ft | 6 kts | 61° |
| 2026-04-30 13:07 | 14.49918 | 121.00256 | 90 ft | 62 kts | 60° |
| 2026-04-30 13:07 | 14.50238 | 121.00832 | 90 ft | 119 kts | 60° |
| 2026-04-30 13:07 | 14.50734 | 121.01720 | 93 ft | 164 kts | 60° |
| 2026-04-30 13:08 | 14.51339 | 121.02762 | 483 ft | 171 kts | 60° |
| 2026-04-30 13:08 | 14.51947 | 121.03838 | 1014 ft | 174 kts | 62° |
| 2026-04-30 13:08 | 14.52543 | 121.04896 | 1605 ft | 172 kts | 61° |
| 2026-04-30 13:08 | 14.53117 | 121.05946 | 2108 ft | 169 kts | 61° |
| 2026-04-30 13:09 | 14.53693 | 121.07015 | 2520 ft | 170 kts | 61° |
| 2026-04-30 13:09 | 14.54270 | 121.08089 | 2934 ft | 171 kts | 61° |
| 2026-04-30 13:09 | 14.54842 | 121.09167 | 3326 ft | 175 kts | 61° |
| 2026-04-30 13:09 | 14.55444 | 121.10318 | 3573 ft | 188 kts | 61° |
| 2026-04-30 13:10 | 14.56084 | 121.11546 | 3831 ft | 202 kts | 61° |
| 2026-04-30 13:10 | 14.56783 | 121.12891 | 4106 ft | 218 kts | 61° |
| 2026-04-30 13:10 | 14.57537 | 121.14339 | 4402 ft | 234 kts | 62° |
| 2026-04-30 13:10 | 14.58085 | 121.15971 | 4678 ft | 253 kts | 84° |
| 2026-04-30 13:11 | 14.57795 | 121.17812 | 5065 ft | 270 kts | 114° |
| 2026-04-30 13:11 | 14.56585 | 121.19310 | 5663 ft | 279 kts | 140° |
| 2026-04-30 13:11 | 14.55014 | 121.20512 | 6332 ft | 281 kts | 140° |
| 2026-04-30 13:11 | 14.53495 | 121.21775 | 6983 ft | 282 kts | 137° |
| 2026-04-30 13:12 | 14.52016 | 121.23092 | 7683 ft | 283 kts | 136° |
| 2026-04-30 13:12 | 14.50524 | 121.24431 | 8332 ft | 284 kts | 136° |
| 2026-04-30 13:12 | 14.49023 | 121.25778 | 8959 ft | 286 kts | 136° |
| 2026-04-30 13:13 | 14.45997 | 121.28487 | 10179 ft | 290 kts | 136° |
| 2026-04-30 13:13 | 14.44452 | 121.29869 | 10544 ft | 301 kts | 136° |
| 2026-04-30 13:13 | 14.41101 | 121.32862 | 11054 ft | 331 kts | 137° |
| 2026-04-30 13:14 | 14.39337 | 121.34435 | 11288 ft | 345 kts | 137° |
| 2026-04-30 13:14 | 14.37471 | 121.36098 | 11519 ft | 359 kts | 137° |
| 2026-04-30 13:14 | 14.33585 | 121.39558 | 12417 ft | 372 kts | 137° |
| 2026-04-30 13:15 | 14.31601 | 121.41324 | 12981 ft | 374 kts | 137° |
| 2026-04-30 13:15 | 14.27619 | 121.44871 | 14043 ft | 381 kts | 137° |
| 2026-04-30 13:15 | 14.25612 | 121.46656 | 14561 ft | 383 kts | 137° |
| 2026-04-30 13:16 | 14.23583 | 121.48461 | 15083 ft | 386 kts | 137° |
| 2026-04-30 13:16 | 14.21523 | 121.50293 | 15597 ft | 390 kts | 138° |
| 2026-04-30 13:16 | 14.19489 | 121.52100 | 16094 ft | 393 kts | 138° |
| 2026-04-30 13:17 | 14.15310 | 121.55817 | 17114 ft | 398 kts | 138° |
| 2026-04-30 13:17 | 14.13208 | 121.57686 | 17605 ft | 401 kts | 138° |
| 2026-04-30 13:17 | 14.09667 | 121.60832 | 18421 ft | 406 kts | 138° |
| 2026-04-30 13:18 | 14.06796 | 121.63381 | 19033 ft | 410 kts | 138° |
| 2026-04-30 13:18 | 14.02428 | 121.67260 | 19942 ft | 416 kts | 139° |
| 2026-04-30 13:18 | 14.00251 | 121.69194 | 20391 ft | 419 kts | 139° |
| 2026-04-30 13:19 | 13.98041 | 121.71159 | 20829 ft | 421 kts | 139° |
| 2026-04-30 13:19 | 13.95806 | 121.73144 | 21253 ft | 424 kts | 139° |
| 2026-04-30 13:19 | 13.93574 | 121.75128 | 21674 ft | 427 kts | 139° |
| 2026-04-30 13:19 | 13.91319 | 121.77131 | 22056 ft | 430 kts | 139° |
| 2026-04-30 13:20 | 13.89010 | 121.79179 | 22442 ft | 433 kts | 139° |
| 2026-04-30 13:20 | 13.86671 | 121.81203 | 22840 ft | 436 kts | 141° |
| 2026-04-30 13:20 | 13.84257 | 121.83090 | 23217 ft | 439 kts | 143° |
| 2026-04-30 13:20 | 13.81789 | 121.84956 | 23606 ft | 441 kts | 143° |
| 2026-04-30 13:21 | 13.79298 | 121.86833 | 23997 ft | 444 kts | 143° |
| 2026-04-30 13:21 | 13.76794 | 121.88718 | 24388 ft | 446 kts | 144° |
| 2026-04-30 13:21 | 13.74269 | 121.90620 | 24758 ft | 448 kts | 144° |
| 2026-04-30 13:22 | 13.69191 | 121.94447 | 25488 ft | 453 kts | 144° |
| 2026-04-30 13:22 | 13.66637 | 121.96372 | 25830 ft | 456 kts | 144° |
| 2026-04-30 13:22 | 13.61492 | 122.00247 | 26520 ft | 460 kts | 144° |
| 2026-04-30 13:23 | 13.58904 | 122.02196 | 26858 ft | 462 kts | 144° |
| 2026-04-30 13:23 | 13.53688 | 122.06124 | 27517 ft | 466 kts | 144° |
| 2026-04-30 13:24 | 13.48429 | 122.10080 | 28144 ft | 471 kts | 144° |
| 2026-04-30 13:24 | 13.43086 | 122.14098 | 28755 ft | 475 kts | 144° |
| 2026-04-30 13:25 | 13.37721 | 122.18130 | 29622 ft | 473 kts | 144° |
| 2026-04-30 13:25 | 13.32476 | 122.22070 | 30572 ft | 468 kts | 144° |
| 2026-04-30 13:26 | 13.24599 | 122.27986 | 31761 ft | 465 kts | 145° |
| 2026-04-30 13:26 | 13.19317 | 122.31945 | 32345 ft | 468 kts | 144° |
| 2026-04-30 13:27 | 13.14025 | 122.35912 | 32927 ft | 471 kts | 144° |
| 2026-04-30 13:28 | 13.05891 | 122.42004 | 32934 ft | 491 kts | 144° |
| 2026-04-30 13:28 | 12.97556 | 122.48246 | 32943 ft | 492 kts | 144° |
| 2026-04-30 13:29 | 12.86451 | 122.56554 | 32943 ft | 491 kts | 144° |
| 2026-04-30 13:31 | 12.72545 | 122.66942 | 32939 ft | 490 kts | 144° |
| 2026-04-30 13:32 | 12.58730 | 122.77248 | 32941 ft | 490 kts | 144° |
| 2026-04-30 13:33 | 12.47667 | 122.85496 | 32941 ft | 489 kts | 144° |
| 2026-04-30 13:34 | 12.39420 | 122.91638 | 32945 ft | 489 kts | 144° |
| 2026-04-30 13:35 | 12.28393 | 122.99840 | 32942 ft | 488 kts | 144° |
| 2026-04-30 13:36 | 12.17390 | 123.07999 | 32947 ft | 489 kts | 144° |
| 2026-04-30 13:36 | 12.09223 | 123.14061 | 32515 ft | 471 kts | 144° |
| 2026-04-30 13:37 | 12.06597 | 123.16009 | 32262 ft | 462 kts | 144° |
| 2026-04-30 13:37 | 12.01406 | 123.19858 | 31721 ft | 459 kts | 143° |
| 2026-04-30 13:38 | 11.96204 | 123.23714 | 30812 ft | 461 kts | 143° |
| 2026-04-30 13:38 | 11.93621 | 123.25627 | 30195 ft | 463 kts | 143° |
| 2026-04-30 13:38 | 11.88376 | 123.29511 | 28871 ft | 465 kts | 143° |
| 2026-04-30 13:39 | 11.83141 | 123.33387 | 27837 ft | 460 kts | 143° |
| 2026-04-30 13:39 | 11.77966 | 123.37215 | 26899 ft | 454 kts | 143° |
| 2026-04-30 13:40 | 11.75413 | 123.39105 | 26385 ft | 452 kts | 143° |
| 2026-04-30 13:40 | 11.72883 | 123.40975 | 25922 ft | 449 kts | 142° |
| 2026-04-30 13:40 | 11.70357 | 123.42843 | 25505 ft | 445 kts | 142° |
| 2026-04-30 13:40 | 11.67884 | 123.44672 | 25099 ft | 440 kts | 142° |
| 2026-04-30 13:41 | 11.65399 | 123.46510 | 24698 ft | 436 kts | 142° |
| 2026-04-30 13:41 | 11.62958 | 123.48313 | 24299 ft | 432 kts | 142° |
| 2026-04-30 13:41 | 11.60518 | 123.50115 | 23901 ft | 428 kts | 142° |
| 2026-04-30 13:41 | 11.58139 | 123.51873 | 23512 ft | 424 kts | 142° |
| 2026-04-30 13:42 | 11.55749 | 123.53638 | 23119 ft | 421 kts | 142° |
| 2026-04-30 13:42 | 11.53382 | 123.55386 | 22722 ft | 418 kts | 142° |
| 2026-04-30 13:42 | 11.48709 | 123.58835 | 21945 ft | 411 kts | 142° |
| 2026-04-30 13:43 | 11.46411 | 123.60532 | 21562 ft | 408 kts | 142° |
| 2026-04-30 13:43 | 11.44098 | 123.62236 | 21171 ft | 406 kts | 142° |
| 2026-04-30 13:43 | 11.41813 | 123.63922 | 20778 ft | 403 kts | 142° |
| 2026-04-30 13:43 | 11.39538 | 123.65601 | 20382 ft | 401 kts | 142° |
| 2026-04-30 13:44 | 11.37259 | 123.67280 | 19978 ft | 399 kts | 142° |
| 2026-04-30 13:44 | 11.35022 | 123.68929 | 19577 ft | 398 kts | 141° |
| 2026-04-30 13:44 | 11.32778 | 123.70584 | 19171 ft | 396 kts | 141° |
| 2026-04-30 13:44 | 11.30556 | 123.72221 | 18762 ft | 395 kts | 141° |
| 2026-04-30 13:45 | 11.26122 | 123.75490 | 17941 ft | 392 kts | 141° |
| 2026-04-30 13:45 | 11.23887 | 123.77138 | 17522 ft | 391 kts | 141° |
| 2026-04-30 13:45 | 11.21699 | 123.78750 | 17119 ft | 390 kts | 141° |
| 2026-04-30 13:46 | 11.19495 | 123.80374 | 16727 ft | 388 kts | 141° |
| 2026-04-30 13:46 | 11.17305 | 123.81986 | 16332 ft | 386 kts | 141° |
| 2026-04-30 13:46 | 11.15008 | 123.83359 | 15979 ft | 392 kts | 157° |
| 2026-04-30 13:46 | 11.12273 | 123.83877 | 15914 ft | 402 kts | 176° |
| 2026-04-30 13:47 | 11.09466 | 123.83694 | 15678 ft | 405 kts | 182° |
| 2026-04-30 13:47 | 11.06603 | 123.83432 | 15008 ft | 412 kts | 182° |
| 2026-04-30 13:47 | 11.03746 | 123.83169 | 14429 ft | 413 kts | 182° |
| 2026-04-30 13:47 | 11.00892 | 123.82909 | 13976 ft | 411 kts | 182° |
| 2026-04-30 13:48 | 10.98066 | 123.82653 | 13551 ft | 408 kts | 182° |
| 2026-04-30 13:48 | 10.95219 | 123.82399 | 13113 ft | 405 kts | 182° |
| 2026-04-30 13:48 | 10.92424 | 123.82149 | 12672 ft | 402 kts | 182° |
| 2026-04-30 13:48 | 10.89639 | 123.81902 | 12240 ft | 400 kts | 182° |
| 2026-04-30 13:49 | 10.86835 | 123.81654 | 11803 ft | 397 kts | 182° |
| 2026-04-30 13:49 | 10.84089 | 123.81411 | 11405 ft | 393 kts | 182° |
| 2026-04-30 13:49 | 10.81368 | 123.81171 | 11090 ft | 387 kts | 182° |
| 2026-04-30 13:49 | 10.78707 | 123.80933 | 10774 ft | 381 kts | 183° |
| 2026-04-30 13:50 | 10.76070 | 123.80641 | 10463 ft | 376 kts | 184° |
| 2026-04-30 13:50 | 10.70937 | 123.80024 | 10024 ft | 358 kts | 184° |
| 2026-04-30 13:50 | 10.68503 | 123.79733 | 9940 ft | 347 kts | 184° |
| 2026-04-30 13:51 | 10.66118 | 123.79452 | 9702 ft | 342 kts | 183° |
| 2026-04-30 13:51 | 10.63745 | 123.79176 | 9448 ft | 337 kts | 183° |
| 2026-04-30 13:51 | 10.61440 | 123.78908 | 9152 ft | 331 kts | 183° |
| 2026-04-30 13:51 | 10.59159 | 123.78642 | 8910 ft | 325 kts | 183° |
| 2026-04-30 13:52 | 10.56930 | 123.78381 | 8686 ft | 321 kts | 183° |
| 2026-04-30 13:52 | 10.54723 | 123.78124 | 8471 ft | 316 kts | 183° |
| 2026-04-30 13:52 | 10.52529 | 123.77869 | 8259 ft | 312 kts | 182° |
| 2026-04-30 13:52 | 10.50389 | 123.77620 | 7987 ft | 308 kts | 182° |
| 2026-04-30 13:53 | 10.48270 | 123.77374 | 7713 ft | 303 kts | 183° |
| 2026-04-30 13:53 | 10.46162 | 123.77129 | 7417 ft | 299 kts | 182° |
| 2026-04-30 13:53 | 10.44111 | 123.76891 | 7200 ft | 295 kts | 183° |
| 2026-04-30 13:53 | 10.42084 | 123.76655 | 7019 ft | 291 kts | 182° |
| 2026-04-30 13:54 | 10.40068 | 123.76420 | 6861 ft | 286 kts | 182° |
| 2026-04-30 13:54 | 10.38129 | 123.76193 | 6834 ft | 276 kts | 182° |
| 2026-04-30 13:54 | 10.36234 | 123.75972 | 6576 ft | 272 kts | 182° |
| 2026-04-30 13:54 | 10.34334 | 123.75751 | 6211 ft | 272 kts | 182° |
| 2026-04-30 13:55 | 10.32440 | 123.75532 | 5852 ft | 272 kts | 182° |
| 2026-04-30 13:55 | 10.30552 | 123.75314 | 5490 ft | 273 kts | 182° |
| 2026-04-30 13:55 | 10.28655 | 123.75095 | 5146 ft | 274 kts | 182° |
| 2026-04-30 13:55 | 10.26766 | 123.74876 | 4870 ft | 276 kts | 182° |
| 2026-04-30 13:56 | 10.24856 | 123.74656 | 4574 ft | 275 kts | 182° |
| 2026-04-30 13:56 | 10.22954 | 123.74631 | 4290 ft | 267 kts | 160° |
| 2026-04-30 13:56 | 10.21417 | 123.75522 | 4053 ft | 249 kts | 129° |
| 2026-04-30 13:56 | 10.20257 | 123.76801 | 3810 ft | 243 kts | 129° |
| 2026-04-30 13:57 | 10.19104 | 123.78036 | 3621 ft | 238 kts | 130° |
| 2026-04-30 13:57 | 10.17951 | 123.79234 | 3409 ft | 234 kts | 130° |
| 2026-04-30 13:57 | 10.16814 | 123.80403 | 3192 ft | 229 kts | 128° |
| 2026-04-30 13:57 | 10.16047 | 123.81746 | 2984 ft | 212 kts | 93° |
| 2026-04-30 13:58 | 10.16227 | 123.83143 | 2956 ft | 196 kts | 64° |
| 2026-04-30 13:58 | 10.17974 | 123.85128 | 2744 ft | 183 kts | 46° |
| 2026-04-30 13:58 | 10.18866 | 123.86006 | 2654 ft | 172 kts | 47° |
| 2026-04-30 13:59 | 10.19732 | 123.86868 | 2556 ft | 172 kts | 47° |
| 2026-04-30 13:59 | 10.20574 | 123.87708 | 2441 ft | 164 kts | 47° |
| 2026-04-30 13:59 | 10.21368 | 123.88503 | 2290 ft | 156 kts | 47° |
| 2026-04-30 13:59 | 10.22124 | 123.89261 | 2068 ft | 152 kts | 46° |
| 2026-04-30 14:00 | 10.22883 | 123.90025 | 1867 ft | 152 kts | 46° |
| 2026-04-30 14:00 | 10.23640 | 123.90783 | 1679 ft | 151 kts | 46° |
| 2026-04-30 14:00 | 10.25159 | 123.92310 | 1295 ft | 150 kts | 45° |
| 2026-04-30 14:01 | 10.26151 | 123.93311 | 1025 ft | 150 kts | 43° |
| 2026-04-30 14:01 | 10.26401 | 123.93563 | 962 ft | 149 kts | 44° |
| 2026-04-30 14:01 | 10.28131 | 123.95287 | 498 ft | 148 kts | 44° |
| 2026-04-30 14:02 | 10.28860 | 123.96040 | 304 ft | 147 kts | 44° |
| 2026-04-30 14:02 | 10.29586 | 123.96774 | 111 ft | 148 kts | 43° |
| 2026-04-30 14:02 | 10.30300 | 123.97485 | 54 ft | 134 kts | 45° |
| 2026-04-30 14:02 | 10.30861 | 123.98045 | 53 ft | 87 kts | 45° |
| 2026-04-30 14:03 | 10.31091 | 123.98265 | 53 ft | 18 kts | 35° |
| 2026-04-30 14:03 | 10.31185 | 123.98310 | 53 ft | 11 kts | 14° |
| 2026-04-30 14:03 | 10.31261 | 123.98334 | 53 ft | 8 kts | 18° |
| 2026-04-30 14:03 | 10.31318 | 123.98352 | 53 ft | 9 kts | 11° |
| 2026-04-30 14:04 | 10.31378 | 123.98332 | 53 ft | 10 kts | 321° |
| 2026-04-30 14:04 | 10.31433 | 123.98279 | 53 ft | 11 kts | 314° |
| 2026-04-30 14:04 | 10.31487 | 123.98224 | 53 ft | 11 kts | 315° |
| 2026-04-30 14:04 | 10.31541 | 123.98168 | 53 ft | 10 kts | 314° |
| 2026-04-30 14:05 | 10.31564 | 123.98119 | 54 ft | 7 kts | 257° |
| 2026-04-30 14:05 | 10.31527 | 123.98070 | 54 ft | 8 kts | 225° |
| 2026-04-30 14:05 | 10.31480 | 123.98022 | 54 ft | 10 kts | 225° |
| 2026-04-30 14:05 | 10.31433 | 123.97974 | 54 ft | 8 kts | 226° |
| 2026-04-30 14:06 | 10.31387 | 123.97926 | 54 ft | 8 kts | 225° |
| 2026-04-30 14:06 | 10.31390 | 123.97858 | 54 ft | 4 kts | 314° |
| 2026-04-30 14:07 | 10.31402 | 123.97845 | 54 ft | 0 kts | 314° |